sensor_id;sensor_type;location;lat;lon;timestamp;temperature;humidity
73438;DHT22;66471;56.532;21.020;2024-01-15T06:53:11;0.70;99.90
73438;DHT22;66471;56.532;21.020;2024-01-15T06:55:38;0.60;99.90
73438;DHT22;66471;56.532;21.020;2024-01-15T06:58:06;0.50;99.90
73438;DHT22;66471;56.532;21.020;2024-01-15T07:00:33;0.50;99.90
73438;DHT22;66471;56.532;21.020;2024-01-15T07:03:00;0.60;99.90
73438;DHT22;66471;56.532;21.020;2024-01-15T07:05:27;0.60;99.90
73438;DHT22;66471;56.532;21.020;2024-01-15T07:07:58;0.50;99.90
73438;DHT22;66471;56.532;21.020;2024-01-15T07:10:25;0.60;99.90
73438;DHT22;66471;56.532;21.020;2024-01-15T07:12:53;0.60;99.90
73438;DHT22;66471;56.532;21.020;2024-01-15T07:15:21;0.50;99.90
73438;DHT22;66471;56.532;21.020;2024-01-15T07:17:48;0.50;99.90
73438;DHT22;66471;56.532;21.020;2024-01-15T07:20:16;0.40;99.90
73438;DHT22;66471;56.532;21.020;2024-01-15T07:22:44;0.50;99.90
73438;DHT22;66471;56.532;21.020;2024-01-15T07:25:11;0.60;99.90
73438;DHT22;66471;56.532;21.020;2024-01-15T07:27:39;0.60;99.90
73438;DHT22;66471;56.532;21.020;2024-01-15T07:30:10;0.70;99.90
73438;DHT22;66471;56.532;21.020;2024-01-15T07:32:38;0.40;99.90
73438;DHT22;66471;56.532;21.020;2024-01-15T07:35:05;0.60;99.90
73438;DHT22;66471;56.532;21.020;2024-01-15T07:37:32;0.70;99.90
73438;DHT22;66471;56.532;21.020;2024-01-15T07:40:00;0.60;99.90
73438;DHT22;66471;56.532;21.020;2024-01-15T07:42:28;0.60;99.90
73438;DHT22;66471;56.532;21.020;2024-01-15T07:44:56;0.50;99.90
73438;DHT22;66471;56.532;21.020;2024-01-15T07:47:24;0.40;99.90
73438;DHT22;66471;56.532;21.020;2024-01-15T07:49:51;0.50;99.90
73438;DHT22;66471;56.532;21.020;2024-01-15T07:52:19;0.50;99.90
73438;DHT22;66471;56.532;21.020;2024-01-15T07:54:46;0.60;99.90
73438;DHT22;66471;56.532;21.020;2024-01-15T07:57:13;0.70;99.90
73438;DHT22;66471;56.532;21.020;2024-01-15T07:59:40;0.60;99.90
73438;DHT22;66471;56.532;21.020;2024-01-15T08:02:07;0.60;99.90
73438;DHT22;66471;56.532;21.020;2024-01-15T08:04:34;0.70;99.90
73438;DHT22;66471;56.532;21.020;2024-01-15T08:07:03;0.60;99.90
73438;DHT22;66471;56.532;21.020;2024-01-15T08:09:31;0.80;99.90
73438;DHT22;66471;56.532;21.020;2024-01-15T08:11:58;0.80;99.90
73438;DHT22;66471;56.532;21.020;2024-01-15T08:14:25;0.70;99.90
73438;DHT22;66471;56.532;21.020;2024-01-15T08:16:52;0.70;99.90
73438;DHT22;66471;56.532;21.020;2024-01-15T08:19:20;0.90;99.90
73438;DHT22;66471;56.532;21.020;2024-01-15T08:21:48;1.10;99.90
73438;DHT22;66471;56.532;21.020;2024-01-15T09:47:51;2.00;99.90
73438;DHT22;66471;56.532;21.020;2024-01-15T09:50:18;2.00;99.90
73438;DHT22;66471;56.532;21.020;2024-01-15T09:52:46;2.10;99.90
73438;DHT22;66471;56.532;21.020;2024-01-15T09:55:13;2.40;99.90
73438;DHT22;66471;56.532;21.020;2024-01-15T09:57:44;2.50;99.90
73438;DHT22;66471;56.532;21.020;2024-01-15T10:00:15;2.50;99.90
73438;DHT22;66471;56.532;21.020;2024-01-15T10:02:44;2.60;99.90
73438;DHT22;66471;56.532;21.020;2024-01-15T10:05:11;2.60;99.90
73438;DHT22;66471;56.532;21.020;2024-01-15T10:07:39;2.60;99.90
73438;DHT22;66471;56.532;21.020;2024-01-15T10:10:07;2.40;99.90
73438;DHT22;66471;56.532;21.020;2024-01-15T10:12:34;2.90;99.90
73438;DHT22;66471;56.532;21.020;2024-01-15T10:15:02;3.60;99.90
73438;DHT22;66471;56.532;21.020;2024-01-15T10:17:30;3.90;99.90
73438;DHT22;66471;56.532;21.020;2024-01-15T10:19:58;3.80;99.90
73438;DHT22;66471;56.532;21.020;2024-01-15T10:22:26;4.40;99.90
73438;DHT22;66471;56.532;21.020;2024-01-15T10:24:53;4.80;98.40
73438;DHT22;66471;56.532;21.020;2024-01-15T10:27:20;5.20;96.30
73438;DHT22;66471;56.532;21.020;2024-01-15T10:29:48;5.70;94.60
73438;DHT22;66471;56.532;21.020;2024-01-15T10:32:16;5.10;93.90
73438;DHT22;66471;56.532;21.020;2024-01-15T10:34:43;4.60;94.90
73438;DHT22;66471;56.532;21.020;2024-01-15T10:37:11;4.20;95.80
73438;DHT22;66471;56.532;21.020;2024-01-15T10:39:38;3.70;96.90
73438;DHT22;66471;56.532;21.020;2024-01-15T10:42:06;3.60;97.90
73438;DHT22;66471;56.532;21.020;2024-01-15T10:44:35;3.80;97.40
73438;DHT22;66471;56.532;21.020;2024-01-15T10:47:03;4.00;97.00
73438;DHT22;66471;56.532;21.020;2024-01-15T10:49:30;3.80;97.70
73438;DHT22;66471;56.532;21.020;2024-01-15T10:52:03;3.80;97.80
73438;DHT22;66471;56.532;21.020;2024-01-15T10:54:31;3.50;96.40
73438;DHT22;66471;56.532;21.020;2024-01-15T10:56:59;3.10;97.30
73438;DHT22;66471;56.532;21.020;2024-01-15T10:59:27;3.10;98.20
73438;DHT22;66471;56.532;21.020;2024-01-15T11:01:54;2.70;99.90
73438;DHT22;66471;56.532;21.020;2024-01-15T11:04:22;2.60;99.90
73438;DHT22;66471;56.532;21.020;2024-01-15T11:06:53;2.20;99.90
73438;DHT22;66471;56.532;21.020;2024-01-15T11:09:23;2.40;99.90
73438;DHT22;66471;56.532;21.020;2024-01-15T11:12:06;2.30;99.90
73438;DHT22;66471;56.532;21.020;2024-01-15T11:14:34;2.60;99.90
73438;DHT22;66471;56.532;21.020;2024-01-15T11:17:02;2.80;99.90
73438;DHT22;66471;56.532;21.020;2024-01-15T11:19:46;2.90;99.90
73438;DHT22;66471;56.532;21.020;2024-01-15T11:24:57;2.80;99.90
73438;DHT22;66471;56.532;21.020;2024-01-15T11:30:12;2.60;99.90
73438;DHT22;66471;56.532;21.020;2024-01-15T11:32:40;2.90;99.90
73438;DHT22;66471;56.532;21.020;2024-01-15T11:35:13;4.00;99.90
73438;DHT22;66471;56.532;21.020;2024-01-15T11:40:23;5.40;92.90
73438;DHT22;66471;56.532;21.020;2024-01-15T11:42:50;6.50;92.00
73438;DHT22;66471;56.532;21.020;2024-01-15T11:45:20;7.20;88.30
73438;DHT22;66471;56.532;21.020;2024-01-15T11:50:30;7.10;82.40
73438;DHT22;66471;56.532;21.020;2024-01-15T11:53:03;6.40;86.30
73438;DHT22;66471;56.532;21.020;2024-01-15T11:55:39;5.40;89.40
73438;DHT22;66471;56.532;21.020;2024-01-15T11:58:11;4.60;92.00
73438;DHT22;66471;56.532;21.020;2024-01-15T12:00:43;4.30;92.80
73438;DHT22;66471;56.532;21.020;2024-01-15T12:03:10;4.30;92.60
73438;DHT22;66471;56.532;21.020;2024-01-15T12:05:38;4.00;93.50
73438;DHT22;66471;56.532;21.020;2024-01-15T12:08:06;3.60;93.80
73438;DHT22;66471;56.532;21.020;2024-01-15T12:10:38;3.40;94.10
73438;DHT22;66471;56.532;21.020;2024-01-15T12:13:13;3.20;94.10
73438;DHT22;66471;56.532;21.020;2024-01-15T12:15:41;3.30;92.60
73438;DHT22;66471;56.532;21.020;2024-01-15T12:18:12;3.10;93.20
73438;DHT22;66471;56.532;21.020;2024-01-15T12:20:41;3.20;92.90
73438;DHT22;66471;56.532;21.020;2024-01-15T12:23:15;3.30;93.60
73438;DHT22;66471;56.532;21.020;2024-01-15T12:25:42;3.60;92.40
73438;DHT22;66471;56.532;21.020;2024-01-15T12:28:10;3.60;92.10
73438;DHT22;66471;56.532;21.020;2024-01-15T12:30:38;3.50;90.90
73438;DHT22;66471;56.532;21.020;2024-01-15T12:33:08;3.60;90.90
73438;DHT22;66471;56.532;21.020;2024-01-15T12:35:37;3.80;89.50
73438;DHT22;66471;56.532;21.020;2024-01-15T12:38:04;4.40;89.10
73438;DHT22;66471;56.532;21.020;2024-01-15T12:40:33;4.70;89.00
73438;DHT22;66471;56.532;21.020;2024-01-15T12:43:05;4.60;88.80
73438;DHT22;66471;56.532;21.020;2024-01-15T12:45:34;4.80;88.60
73438;DHT22;66471;56.532;21.020;2024-01-15T12:48:03;4.60;88.60
73438;DHT22;66471;56.532;21.020;2024-01-15T12:50:33;4.00;88.50
73438;DHT22;66471;56.532;21.020;2024-01-15T12:53:01;3.90;90.10
73438;DHT22;66471;56.532;21.020;2024-01-15T12:55:28;3.50;91.50
73438;DHT22;66471;56.532;21.020;2024-01-15T12:57:55;3.20;92.80
73438;DHT22;66471;56.532;21.020;2024-01-15T13:00:23;3.20;92.80
73438;DHT22;66471;56.532;21.020;2024-01-15T13:02:53;3.00;93.50
73438;DHT22;66471;56.532;21.020;2024-01-15T13:05:22;3.40;92.80
73438;DHT22;66471;56.532;21.020;2024-01-15T13:07:50;3.60;93.00
73438;DHT22;66471;56.532;21.020;2024-01-15T13:10:17;4.00;91.20
73438;DHT22;66471;56.532;21.020;2024-01-15T13:12:44;4.10;90.30
73438;DHT22;66471;56.532;21.020;2024-01-15T13:15:12;4.20;90.20
73438;DHT22;66471;56.532;21.020;2024-01-15T13:17:41;4.20;90.00
73438;DHT22;66471;56.532;21.020;2024-01-15T13:20:11;4.00;90.60
73438;DHT22;66471;56.532;21.020;2024-01-15T13:22:39;3.80;90.60
73438;DHT22;66471;56.532;21.020;2024-01-15T13:25:07;3.70;91.20
73438;DHT22;66471;56.532;21.020;2024-01-15T13:27:35;3.20;92.00
73438;DHT22;66471;56.532;21.020;2024-01-15T13:30:06;3.10;93.50
73438;DHT22;66471;56.532;21.020;2024-01-15T13:32:35;3.00;94.40
73438;DHT22;66471;56.532;21.020;2024-01-15T13:35:03;2.80;94.10
73438;DHT22;66471;56.532;21.020;2024-01-15T13:37:33;2.80;94.00
73438;DHT22;66471;56.532;21.020;2024-01-15T13:40:00;2.70;94.50
73438;DHT22;66471;56.532;21.020;2024-01-15T13:42:28;2.60;94.10
73438;DHT22;66471;56.532;21.020;2024-01-15T13:44:55;2.50;94.30
73438;DHT22;66471;56.532;21.020;2024-01-15T13:47:22;2.20;95.30
73438;DHT22;66471;56.532;21.020;2024-01-15T13:49:51;2.30;95.60
73438;DHT22;66471;56.532;21.020;2024-01-15T13:52:18;2.00;95.50
73438;DHT22;66471;56.532;21.020;2024-01-15T13:54:45;2.20;95.90
73438;DHT22;66471;56.532;21.020;2024-01-15T13:57:17;2.00;95.70
73438;DHT22;66471;56.532;21.020;2024-01-15T13:59:45;1.80;95.90
73438;DHT22;66471;56.532;21.020;2024-01-15T14:02:13;1.70;95.60
73438;DHT22;66471;56.532;21.020;2024-01-15T14:04:50;1.60;95.80
73438;DHT22;66471;56.532;21.020;2024-01-15T14:07:17;1.40;96.20
73438;DHT22;66471;56.532;21.020;2024-01-15T14:09:44;1.40;96.60
73438;DHT22;66471;56.532;21.020;2024-01-15T14:12:11;1.30;97.40
73438;DHT22;66471;56.532;21.020;2024-01-15T14:14:39;1.50;97.50
73438;DHT22;66471;56.532;21.020;2024-01-15T14:17:07;1.10;97.90
73438;DHT22;66471;56.532;21.020;2024-01-15T14:19:34;1.20;98.00
73438;DHT22;66471;56.532;21.020;2024-01-15T14:22:03;1.20;98.10
73438;DHT22;66471;56.532;21.020;2024-01-15T14:24:30;1.10;99.30
73438;DHT22;66471;56.532;21.020;2024-01-15T14:26:57;1.10;99.90
73438;DHT22;66471;56.532;21.020;2024-01-15T14:29:25;1.00;99.90
73438;DHT22;66471;56.532;21.020;2024-01-15T14:31:54;0.90;99.90
73438;DHT22;66471;56.532;21.020;2024-01-15T14:34:21;1.00;99.90
73438;DHT22;66471;56.532;21.020;2024-01-15T14:36:51;0.80;99.90
73438;DHT22;66471;56.532;21.020;2024-01-15T14:39:23;0.70;99.90
73438;DHT22;66471;56.532;21.020;2024-01-15T14:41:50;0.60;99.90
73438;DHT22;66471;56.532;21.020;2024-01-15T14:44:18;0.40;99.90
73438;DHT22;66471;56.532;21.020;2024-01-15T14:46:45;0.60;99.90
73438;DHT22;66471;56.532;21.020;2024-01-15T14:49:14;0.50;99.90
73438;DHT22;66471;56.532;21.020;2024-01-15T14:51:42;0.30;99.90
73438;DHT22;66471;56.532;21.020;2024-01-15T14:54:10;0.20;99.90
73438;DHT22;66471;56.532;21.020;2024-01-15T14:56:37;0.30;99.90
73438;DHT22;66471;56.532;21.020;2024-01-15T14:59:04;0.00;99.90
73438;DHT22;66471;56.532;21.020;2024-01-15T15:01:32;0.20;99.90
73438;DHT22;66471;56.532;21.020;2024-01-15T15:04:00;0.00;99.90
73438;DHT22;66471;56.532;21.020;2024-01-15T15:06:28;0.00;99.90
73438;DHT22;66471;56.532;21.020;2024-01-15T15:08:55;0.00;99.90
73438;DHT22;66471;56.532;21.020;2024-01-15T15:11:25;0.00;99.90
73438;DHT22;66471;56.532;21.020;2024-01-15T15:13:53;0.00;99.90
73438;DHT22;66471;56.532;21.020;2024-01-15T15:16:20;-0.40;99.90
73438;DHT22;66471;56.532;21.020;2024-01-15T15:18:47;-0.40;99.90
73438;DHT22;66471;56.532;21.020;2024-01-15T15:21:15;-0.30;99.90
73438;DHT22;66471;56.532;21.020;2024-01-15T15:23:45;-0.20;99.90
73438;DHT22;66471;56.532;21.020;2024-01-15T15:26:12;-0.40;99.90
73438;DHT22;66471;56.532;21.020;2024-01-15T15:28:40;-0.30;99.90
73438;DHT22;66471;56.532;21.020;2024-01-15T15:31:08;-0.30;99.90
73438;DHT22;66471;56.532;21.020;2024-01-15T15:33:35;-0.20;99.90
73438;DHT22;66471;56.532;21.020;2024-01-15T15:36:04;-0.40;99.90
73438;DHT22;66471;56.532;21.020;2024-01-15T15:38:32;-0.30;99.90
73438;DHT22;66471;56.532;21.020;2024-01-15T15:41:00;-0.20;99.90
73438;DHT22;66471;56.532;21.020;2024-01-15T15:43:28;-0.40;99.90
73438;DHT22;66471;56.532;21.020;2024-01-15T15:45:56;-0.30;99.90
73438;DHT22;66471;56.532;21.020;2024-01-15T15:48:25;-0.30;99.90
73438;DHT22;66471;56.532;21.020;2024-01-15T15:50:53;-0.60;99.90
73438;DHT22;66471;56.532;21.020;2024-01-15T15:53:20;-0.30;99.90
73438;DHT22;66471;56.532;21.020;2024-01-15T15:55:48;-0.30;99.90
73438;DHT22;66471;56.532;21.020;2024-01-15T15:58:16;-0.30;99.90
73438;DHT22;66471;56.532;21.020;2024-01-15T16:00:43;-0.50;99.90
73438;DHT22;66471;56.532;21.020;2024-01-15T16:03:10;-0.50;99.90
73438;DHT22;66471;56.532;21.020;2024-01-15T16:05:37;-0.40;99.90
73438;DHT22;66471;56.532;21.020;2024-01-15T16:08:18;-0.50;99.90
73438;DHT22;66471;56.532;21.020;2024-01-15T16:10:46;-0.50;99.90
73438;DHT22;66471;56.532;21.020;2024-01-15T16:13:15;-0.60;99.90
73438;DHT22;66471;56.532;21.020;2024-01-15T16:15:43;-0.40;99.90
73438;DHT22;66471;56.532;21.020;2024-01-15T16:18:10;-0.60;99.90
73438;DHT22;66471;56.532;21.020;2024-01-15T16:20:58;-0.50;99.90
73438;DHT22;66471;56.532;21.020;2024-01-15T16:23:46;-0.50;99.90
73438;DHT22;66471;56.532;21.020;2024-01-15T16:26:34;-0.40;99.90
73438;DHT22;66471;56.532;21.020;2024-01-15T16:29:04;-0.30;99.90
73438;DHT22;66471;56.532;21.020;2024-01-15T16:31:31;-0.40;99.90
73438;DHT22;66471;56.532;21.020;2024-01-15T16:33:58;-0.20;99.90
73438;DHT22;66471;56.532;21.020;2024-01-15T16:36:32;-0.20;99.90
73438;DHT22;66471;56.532;21.020;2024-01-15T16:39:00;-0.30;99.90
73438;DHT22;66471;56.532;21.020;2024-01-15T16:41:28;-0.40;99.90
73438;DHT22;66471;56.532;21.020;2024-01-15T16:43:56;-0.40;99.90
